METAR v bližini

 

LIPQ - Ronchi Legionari, Italy
Oddaljenost od postaje: JZ 35km
Podatki zajeti: 20/11/2017 07:50
Jasno
Jasno
 Veter iz smeri SV
Veter: SV 7 km/h
Temperatura: -1°C
Občutek mraza zaradi vetra: -4°C
Temp. rosišča: -2°C
Vlažnost: 93%
Tlak: 1020 hPa
Stanje: Jasno
Vidljivost: večja od 10 km
2017/11/20 06:50 LIPQ 200650Z 04004KT CAVOK M01/M02 Q1020
LIVT - Trieste, Italy
Oddaljenost od postaje: J 49km
Podatki zajeti: 20/11/2017 07:55
Jasno
Jasno
 Veter iz smeri calm
Veter: Tišina
Temperatura: 5°C
Temp. rosišča: 0°C
Vlažnost: 70%
Tlak: 1020 hPa
Stanje: Jasno
Vidljivost: večja od 10 km
2017/11/20 06:55 LIVT 200655Z 00000KT CAVOK 05/00 Q1020 RMK SKC QUK 0 QUL 0 VIS MAR 20 KM VIS MIN 9999
 
LIVO - Tarvisio, Italy
Oddaljenost od postaje: SSZ 49km
Podatki zajeti: 20/11/2017 07:55
Jasno
Jasno
 Veter iz smeri calm
Veter: Tišina
Temperatura: -4°C
Temp. rosišča: -6°C
Vlažnost: 86%
Tlak: 1018 hPa
Stanje: Jasno
Vidljivost: večja od 10 km
2017/11/20 06:55 LIVO 200655Z 00000KT CAVOK M04/M06 Q1018 RMK FEW FEW200 VIS MIN 9999
LIPI - Rivolto (it-Afb), Italy
Oddaljenost od postaje: ZJZ 57km
Podatki zajeti: 20/11/2017 07:55
Jasno
Jasno
 Veter iz smeri spremenljiv
Veter: spremenljiv 0 km/h
Temperatura: -1°C
Temp. rosišča: -3°C
Vlažnost: 86%
Tlak: 1020 hPa
Stanje: Jasno
Vidljivost: večja od 10 km
2017/11/20 06:55 LIPI 200655Z /////KT CAVOK M01/M03 Q1020 RMK SKC VIS MIN 9999 WIND THR06 03006KT WIND THR24 02004KT BLU
 
LJLJ - Ljubljana/Brnik, Slovenia
Oddaljenost od postaje: VSV 59km
Podatki zajeti: 20/11/2017 08:30
Megla ki zmrzuje, Oblačno
Megla ki zmrzuje, Oblačno
 Veter iz smeri spremenljiv
Veter: spremenljiv 4 km/h
Temperatura: -3°C
Temp. rosišča: -3°C
Vlažnost: 100%
Tlak: 1020 hPa
Stanje: Megla ki zmrzuje
Oblačnost: Oblačno
Vidljivost: 0 km
Podrobnosti o oblakih: Oblačno 30 m
2017/11/20 07:30 LJLJ 200730Z VRB02KT 0400 R30/0400V0700U FZFG VV001 M03/M03 Q1020 TEMPO 1500 BR BKN001
LJPZ - Portoroz, Slovenia
Oddaljenost od postaje: J 68km
Podatki zajeti: 20/11/2017 08:30
Jasno
Jasno
 Veter iz smeri VJV
Veter: VJV 19 km/h
Temperatura: 3°C
Občutek mraza zaradi vetra: -2°C
Temp. rosišča: -3°C
Vlažnost: 65%
Tlak: 1021 hPa
Stanje: Jasno
Vidljivost: večja od 10 km
2017/11/20 07:30 LJPZ 200730Z 12010KT CAVOK 03/M03 Q1021
 
LOWK - Klagenfurt(Civ/M, Austria
Oddaljenost od postaje: SV 78km
Podatki zajeti: 20/11/2017 08:20
Rahlo oblačno
Rahlo oblačno
 Veter iz smeri ZSZ
Veter: ZSZ 7 km/h
Temperatura: -2°C
Občutek mraza zaradi vetra: -6°C
Temp. rosišča: -5°C
Vlažnost: 80%
Tlak: 1020 hPa
Oblačnost: Rahlo oblačno
Vidljivost: 10 km
Podrobnosti o oblakih: Rahlo oblačno 1524 m
2017/11/20 07:20 LOWK 200720Z 29004KT 260V320 9999 FEW050 M02/M05 Q1020 NOSIG
LIYW - Aviano (usaf), Italy
Oddaljenost od postaje: Z 86km
Podatki zajeti: 20/10/2015 15:58
Ni posodobljen
Jasno
Jasno
 Veter iz smeri JJZ
Veter: JJZ 6 km/h
Temperatura: 17°C
Temp. rosišča: 3°C
Vlažnost: 39%
Tlak: 1016.3 hPa
Oblačnost: Jasno
Vidljivost: 10 km
2015/10/20 13:58 LIYW 201358Z AUTO 21003KT 9999 CLR 17/03 A3001 RMK AO2 SLP167 T01660029
 
LIPA - Aviano (it/Us-Af, Italy
Oddaljenost od postaje: Z 89km
Podatki zajeti: 20/11/2017 07:55
Jasno
Jasno
 Veter iz smeri SSV
Veter: SSV 17 km/h
Temperatura: 1°C
Občutek mraza zaradi vetra: -3°C
Temp. rosišča: -3°C
Vlažnost: 75%
Tlak: 1019 hPa
Stanje: Jasno
Vidljivost: večja od 10 km
2017/11/20 06:55 LIPA 200655Z 03009KT CAVOK 01/M03 Q1019 RMK SKC VIS MIN 9999 WIND THR05 /////KT WIND THR23 /////KT A3011 BLU
LDRI - Rijeka/Omisalj, Croatia
Oddaljenost od postaje: JV 115km
Podatki zajeti: 20/11/2017 08:30
Jasno
Jasno
 Veter iz smeri JV
Veter: JV 6 km/h
Temperatura: 6°C
Temp. rosišča: -1°C
Vlažnost: 61%
Tlak: 1020 hPa
Stanje: Jasno
Vidljivost: večja od 10 km
2017/11/20 07:30 LDRI 200730Z 13003KT CAVOK 06/M01 Q1020
 
LIPZ - Venezia/Tessera, Italy
Oddaljenost od postaje: ZJZ 127km
Podatki zajeti: 20/11/2017 07:50
Delno oblačno
Delno oblačno
 Veter iz smeri ZSZ
Veter: ZSZ 9 km/h
Temperatura: 3°C
Občutek mraza zaradi vetra: 0°C
Temp. rosišča: 2°C
Vlažnost: 93%
Tlak: 1020 hPa
Oblačnost: Delno oblačno
Vidljivost: 8 km
2017/11/20 06:50 LIPZ 200650Z 30005KT 280V340 8000 NSC 03/02 Q1020 NOSIG
LDPL - Pula, Croatia
Oddaljenost od postaje: J 133km
Podatki zajeti: 20/11/2017 08:30
Jasno
Jasno
 Veter iz smeri VSV
Veter: VSV 7 km/h
Temperatura: 4°C
Občutek mraza zaradi vetra: 2°C
Temp. rosišča: -1°C
Vlažnost: 70%
Tlak: 1020 hPa
Stanje: Jasno
Vidljivost: večja od 10 km
2017/11/20 07:30 LDPL 200730Z 06004KT CAVOK 04/M01 Q1020 NOSIG
 
LIPS - Istrana (it-Afb), Italy
Oddaljenost od postaje: ZJZ 136km
Podatki zajeti: 20/11/2017 07:55
Jasno
Jasno
 Veter iz smeri VJV
Veter: VJV 2 km/h
Temperatura: 1°C
Temp. rosišča: -1°C
Vlažnost: 87%
Tlak: 1019 hPa
Stanje: Jasno
Vidljivost: večja od 10 km
2017/11/20 06:55 LIPS 200655Z 12001KT CAVOK 01/M01 Q1019 RMK FEW FEW200 VIS MIN 9999 WIND THR26 00000KT WIND THR08 12001KT BLU
LIVD - Dobbiaco, Italy
Oddaljenost od postaje: ZSZ 137km
Podatki zajeti: 20/11/2017 07:55
Jasno
Jasno
 Veter iz smeri ZJZ
Veter: ZJZ 2 km/h
Temperatura: -6°C
Temp. rosišča: -7°C
Vlažnost: 93%
Tlak: 1021 hPa
Stanje: Jasno
Vidljivost: večja od 10 km
2017/11/20 06:55 LIVD 200655Z 25001KT CAVOK M06/M07 Q1021 RMK SKC VIS MIN 9999
 
LJCE - Cerklje, Slovenia
Oddaljenost od postaje: V 139km
Podatki zajeti: 20/11/2017 08:30
Megla ki zmrzuje, Oblačno
Megla ki zmrzuje, Oblačno
 Veter iz smeri Z
Veter: Z 11 km/h
Temperatura: -1°C
Občutek mraza zaradi vetra: -5°C
Temp. rosišča: -1°C
Vlažnost: 100%
Tlak: 1021 hPa
Stanje: Megla ki zmrzuje
Oblačnost: Oblačno
Vidljivost: 0 km
Podrobnosti o oblakih: Oblačno 61 m
2017/11/20 07:30 LJCE 200730Z 27006KT 220V290 0300 R09/0600N FZFG VV002 M01/M01 Q1021 R09/CLRD// RMK RED
LOXZ - Zeltweg (mil), Austria
Oddaljenost od postaje: SSV 147km
Podatki zajeti: 20/11/2017 08:20
Rahlo oblačno
Rahlo oblačno
 Veter iz smeri ZSZ
Veter: ZSZ 11 km/h
Temperatura: 0°C
Občutek mraza zaradi vetra: -4°C
Temp. rosišča: -2°C
Vlažnost: 87%
Tlak: 1018 hPa
Oblačnost: Rahlo oblačno
Podrobnosti o oblakih: Rahlo oblačno 1067 m
2017/11/20 07:20 LOXZ 200720Z 29006KT 10KM FEW035SC 00/M02 Q1018 NOSIG